Time;durP1;ratioP1;P1;durP2;ratioP2;P2;SDS_P1;SDS_P2;PMS_P1;PMS_P2;Temp;Humidity;BMP_temperature;BMP_pressure;BME280_temperature;BME280_humidity;BME280_pressure;Samples;Min_cycle;Max_cycle;Signal;HPM_P1;HPM_P2
2023/09/07 00:00:29;;;;;;;15.32;6.28;;;;;;;20.63;75.21;95260.91;4789336;30;20211;-88
2023/09/07 00:02:55;;;;;;;11.20;6.25;;;;;;;20.70;74.41;95280.19;4789719;30;20226;-88
2023/09/07 00:05:20;;;;;;;10.50;5.90;;;;;;;20.53;74.09;95247.50;4772139;30;21365;-87
2023/09/07 00:07:46;;;;;;;11.67;6.00;;;;;;;20.79;74.21;95293.06;4788461;30;20457;-88
2023/09/07 00:10:11;;;;;;;8.68;5.72;;;;;;;20.69;74.14;95272.41;4772068;30;20457;-88
2023/09/07 00:12:39;;;;;;;9.98;5.53;;;;;;;21.04;73.57;95290.44;4789014;30;20864;-88
2023/09/07 00:15:06;;;;;;;8.77;5.45;;;;;;;21.02;73.11;95303.28;4772605;30;20949;-88
2023/09/07 00:17:32;;;;;;;9.07;5.93;;;;;;;20.74;73.69;95252.91;4788440;30;20429;-88
2023/09/07 00:19:58;;;;;;;8.73;6.13;;;;;;;20.96;73.51;95301.66;4788863;30;20440;-87
2023/09/07 00:22:25;;;;;;;8.85;6.13;;;;;;;21.01;73.78;95313.19;4787672;30;20452;-87
2023/09/07 00:24:50;;;;;;;11.20;6.82;;;;;;;20.84;74.28;95295.75;4771869;30;20457;-87
2023/09/07 00:27:16;;;;;;;9.25;6.25;;;;;;;20.77;74.56;95289.81;4787607;30;20541;-88
2023/09/07 00:29:41;;;;;;;9.38;6.00;;;;;;;20.89;74.67;95303.78;4787798;30;20433;-87
2023/09/07 00:32:07;;;;;;;7.78;6.43;;;;;;;20.67;75.67;95283.38;4787271;30;20429;-88
2023/09/07 00:34:32;;;;;;;8.93;6.33;;;;;;;20.53;75.72;95252.84;4787906;30;20436;-87
2023/09/07 00:36:58;;;;;;;10.20;6.87;;;;;;;20.69;76.83;95294.63;4788410;30;20873;-87
2023/09/07 00:39:23;;;;;;;11.15;7.00;;;;;;;20.60;77.40;95295.41;4771803;30;20524;-88
2023/09/07 00:41:49;;;;;;;10.93;6.68;;;;;;;20.34;78.11;95273.91;4787386;30;20429;-87
2023/09/07 00:44:14;;;;;;;10.93;6.87;;;;;;;20.55;77.95;95296.19;4771291;30;20422;-88
2023/09/07 00:46:39;;;;;;;9.13;7.10;;;;;;;20.53;78.03;95284.16;4787834;30;20444;-87
2023/09/07 00:49:05;;;;;;;9.37;6.70;;;;;;;20.46;78.13;95280.91;4771227;30;20437;-88
2023/09/07 00:51:31;;;;;;;7.73;6.77;;;;;;;20.53;77.99;95287.63;4771239;30;20463;-88
2023/09/07 00:53:58;;;;;;;11.63;6.50;;;;;;;20.40;77.90;95264.06;4788359;30;20164;-88
2023/09/07 00:56:25;;;;;;;10.10;7.10;;;;;;;20.58;78.32;95290.31;4787497;30;20421;-88
2023/09/07 00:58:54;;;;;;;10.38;7.10;;;;;;;20.32;78.80;95278.66;4787744;29;20433;-87
2023/09/07 01:01:19;;;;;;;11.17;7.07;;;;;;;20.22;78.78;95261.81;4779376;29;20960;-87
2023/09/07 01:03:45;;;;;;;9.10;7.20;;;;;;;20.19;79.26;95259.63;4797251;29;20447;-87
2023/09/07 01:06:28;;;;;;;10.57;7.60;;;;;;;20.32;79.48;95273.31;4795163;29;20964;-88
2023/09/07 01:08:57;;;;;;;11.25;8.00;;;;;;;20.43;79.19;95282.22;4799246;29;20428;-88
2023/09/07 01:11:22;;;;;;;9.68;7.10;;;;;;;20.41;79.13;95287.03;4806105;29;20420;-88
2023/09/07 01:13:49;;;;;;;11.47;8.83;;;;;;;20.47;79.54;95283.31;4805277;29;20431;-87
2023/09/07 01:16:14;;;;;;;10.77;8.30;;;;;;;20.43;78.88;95282.22;4805022;29;20423;-88
2023/09/07 01:18:41;;;;;;;10.10;8.03;;;;;;;20.46;79.27;95288.94;4804899;29;20858;-88
2023/09/07 01:21:10;;;;;;;11.20;8.47;;;;;;;20.26;79.52;95255.66;4804826;29;20431;-88
2023/09/07 01:23:37;;;;;;;8.18;7.38;;;;;;;20.36;79.84;95281.66;4805091;29;20470;-87
2023/09/07 01:26:04;;;;;;;12.82;7.97;;;;;;;20.42;80.19;95285.16;4788470;29;20428;-88
2023/09/07 01:28:29;;;;;;;10.77;8.10;;;;;;;20.30;79.87;95263.97;4788632;29;20456;-87
2023/09/07 01:30:54;;;;;;;12.60;8.43;;;;;;;20.18;80.39;95253.47;4805290;29;20480;-87
2023/09/07 01:33:20;;;;;;;13.33;8.03;;;;;;;20.34;80.40;95283.78;4804744;29;20801;-88
2023/09/07 01:35:46;;;;;;;9.97;8.20;;;;;;;20.24;80.69;95270.34;4805534;29;20432;-88
2023/09/07 01:38:11;;;;;;;12.05;8.27;;;;;;;20.07;80.78;95248.34;4805513;29;20460;-89
2023/09/07 01:40:37;;;;;;;14.20;9.33;;;;;;;20.17;81.24;95270.59;4788718;29;20455;-87
2023/09/07 01:43:02;;;;;;;12.87;8.80;;;;;;;19.97;81.34;95243.78;4786458;29;21118;-89
2023/09/07 01:45:28;;;;;;;11.43;8.48;;;;;;;19.96;81.45;95245.63;4777784;29;20431;-88
2023/09/07 01:47:53;;;;;;;14.17;8.93;;;;;;;20.02;81.93;95261.69;4778638;29;20431;-89
2023/09/07 01:50:19;;;;;;;10.60;8.77;;;;;;;19.81;81.99;95229.50;4782692;29;20433;-89
2023/09/07 01:52:48;;;;;;;13.40;9.13;;;;;;;19.51;82.19;95176.72;4789238;29;20445;-89
2023/09/07 01:55:14;;;;;;;12.45;8.60;;;;;;;19.84;82.07;95222.84;4771605;30;20221;-88
2023/09/07 01:57:39;;;;;;;14.20;8.43;;;;;;;20.01;82.24;95255.53;4770574;30;20433;-88
2023/09/07 02:00:05;;;;;;;14.17;9.20;;;;;;;20.23;82.60;95285.63;4786095;29;20918;-88
2023/09/07 02:02:31;;;;;;;13.10;9.40;;;;;;;19.96;82.56;95237.63;4786130;30;20453;-88
2023/09/07 02:04:56;;;;;;;15.23;9.53;;;;;;;20.23;82.45;95293.63;4770537;30;20433;-88
2023/09/07 02:07:21;;;;;;;12.57;9.98;;;;;;;19.79;82.63;95218.28;4786331;30;20443;-89
2023/09/07 02:09:47;;;;;;;14.25;9.23;;;;;;;20.00;82.57;95253.13;4770166;30;20429;-89
2023/09/07 02:12:12;;;;;;;14.20;9.70;;;;;;;20.09;82.29;95273.75;4770406;30;20926;-89
2023/09/07 02:14:38;;;;;;;13.48;10.20;;;;;;;20.13;82.81;95279.41;4770134;30;20421;-87
2023/09/07 02:17:03;;;;;;;13.27;9.85;;;;;;;20.17;82.81;95291.16;4786751;30;20421;-89
2023/09/07 02:19:29;;;;;;;13.50;9.43;;;;;;;20.11;82.54;95266.28;4770156;30;20596;-88
2023/09/07 02:21:54;;;;;;;12.17;9.33;;;;;;;20.15;82.93;95294.09;4786616;30;20432;-88
2023/09/07 02:24:19;;;;;;;12.53;9.57;;;;;;;19.99;83.24;95268.34;4786497;30;20798;-88
2023/09/07 02:26:45;;;;;;;15.05;9.95;;;;;;;19.79;83.94;95255.69;4769936;30;20445;-88
2023/09/07 02:29:13;;;;;;;14.57;10.10;;;;;;;19.73;83.87;95250.56;4770520;30;20493;-89
2023/09/07 02:31:42;;;;;;;13.20;10.05;;;;;;;19.67;83.72;95235.56;4786362;30;20520;-88
2023/09/07 02:34:07;;;;;;;13.32;9.68;;;;;;;19.86;83.47;95263.47;4786892;30;20802;-87
2023/09/07 02:36:37;;;;;;;13.90;10.13;;;;;;;19.77;83.48;95249.81;4785883;30;20437;-88
2023/09/07 02:39:03;;;;;;;13.18;9.68;;;;;;;19.75;83.46;95246.56;4785538;29;20945;-88
2023/09/07 02:41:29;;;;;;;12.95;10.13;;;;;;;19.74;83.13;95244.97;4792968;29;20436;-88
2023/09/07 02:43:54;;;;;;;11.90;9.75;;;;;;;19.90;82.74;95260.03;4794778;29;20199;-88
2023/09/07 02:46:19;;;;;;;16.85;9.70;;;;;;;20.03;83.08;95285.50;4777822;29;20420;-87
2023/09/07 02:48:45;;;;;;;13.73;10.00;;;;;;;19.94;83.79;95277.16;4789224;29;20433;-88
2023/09/07 02:51:10;;;;;;;12.53;10.07;;;;;;;20.01;84.10;95298.31;4786022;30;20508;-88
2023/09/07 02:53:35;;;;;;;12.05;8.82;;;;;;;19.74;84.41;95250.31;4770949;30;20180;-89
2023/09/07 02:56:03;;;;;;;12.48;9.18;;;;;;;19.83;84.47;95259.44;4787249;30;20185;-88
2023/09/07 02:58:29;;;;;;;15.45;9.55;;;;;;;19.69;84.45;95249.47;4787038;30;20177;-88
2023/09/07 03:00:55;;;;;;;16.55;10.93;;;;;;;19.98;85.00;95300.72;4769691;30;20501;-88
2023/09/07 03:03:20;;;;;;;12.88;9.25;;;;;;;19.89;84.70;95287.81;4771091;30;20228;-88
2023/09/07 03:05:45;;;;;;;16.00;11.33;;;;;;;19.36;84.85;95207.84;4786056;30;20430;-88
2023/09/07 03:08:11;;;;;;;14.73;10.93;;;;;;;19.58;84.92;95245.94;4787175;30;20429;-89
2023/09/07 03:10:39;;;;;;;15.30;10.20;;;;;;;19.93;84.93;95309.50;4786867;30;20245;-88
2023/09/07 03:13:05;;;;;;;16.05;11.07;;;;;;;19.41;85.38;95239.91;4772423;30;20429;-88
2023/09/07 03:15:30;;;;;;;13.02;10.27;;;;;;;19.69;85.61;95279.69;4790558;30;20256;-88
2023/09/07 03:17:56;;;;;;;15.98;10.15;;;;;;;19.80;84.99;95291.25;4790294;30;20180;-88
2023/09/07 03:20:21;;;;;;;15.90;10.93;;;;;;;19.57;85.70;95263.81;4773358;30;20433;-88
2023/09/07 03:22:47;;;;;;;16.10;11.70;;;;;;;19.58;86.09;95264.63;4789127;30;20478;-88
2023/09/07 03:25:13;;;;;;;16.13;11.37;;;;;;;19.61;85.78;95268.66;4773234;30;20964;-88
2023/09/07 03:27:39;;;;;;;23.13;10.93;;;;;;;19.74;86.27;95303.75;4789942;30;20544;-88
2023/09/07 03:30:05;;;;;;;16.52;10.70;;;;;;;19.78;86.68;95302.19;4789376;30;20512;-89
2023/09/07 03:32:34;;;;;;;15.15;11.25;;;;;;;19.62;87.02;95286.31;4789316;30;20488;-88
2023/09/07 03:35:00;;;;;;;16.53;11.53;;;;;;;19.81;86.47;95309.66;4788755;30;20516;-84
2023/09/07 03:37:28;;;;;;;17.10;11.73;;;;;;;19.80;86.71;95309.94;4772680;30;20956;-84
2023/09/07 03:39:53;;;;;;;16.23;11.77;;;;;;;19.57;87.35;95285.19;4789186;30;20429;-84
2023/09/07 03:42:18;;;;;;;15.47;11.13;;;;;;;19.52;87.59;95279.81;4789430;30;20535;-86
2023/09/07 03:44:44;;;;;;;17.57;12.00;;;;;;;19.47;88.48;95274.44;4788801;30;20500;-86
2023/09/07 03:47:10;;;;;;;15.00;11.80;;;;;;;19.66;88.24;95296.22;4788871;30;20453;-86
2023/09/07 03:49:36;;;;;;;18.63;11.88;;;;;;;19.81;88.04;95315.00;4788961;30;20489;-86
2023/09/07 03:52:01;;;;;;;15.40;12.52;;;;;;;19.78;87.76;95320.88;4789725;29;20918;-86
2023/09/07 03:54:26;;;;;;;15.60;11.03;;;;;;;19.53;88.39;95277.97;4796256;29;20948;-86
2023/09/07 03:56:53;;;;;;;20.90;12.60;;;;;;;19.52;88.55;95289.69;4798359;29;20455;-86
2023/09/07 03:59:18;;;;;;;15.85;12.48;;;;;;;19.41;88.88;95279.97;4799100;29;20430;-86
2023/09/07 04:01:44;;;;;;;21.43;12.63;;;;;;;19.65;89.33;95326.66;4786832;29;20429;-86
2023/09/07 04:04:09;;;;;;;17.80;11.87;;;;;;;19.64;89.75;95335.72;4807123;29;20450;-86
2023/09/07 04:06:35;;;;;;;16.40;12.97;;;;;;;19.43;89.72;95302.69;4806486;29;20428;-86
2023/09/07 04:09:00;;;;;;;17.80;13.23;;;;;;;19.52;90.41;95335.09;4806512;29;20484;-86
2023/09/07 04:11:26;;;;;;;19.17;12.75;;;;;;;19.40;90.24;95310.41;4806652;29;20808;-86
2023/09/07 04:13:51;;;;;;;17.63;13.23;;;;;;;19.55;89.93;95331.91;4806098;29;20542;-85
2023/09/07 04:16:17;;;;;;;16.27;13.20;;;;;;;19.58;89.70;95336.75;4807078;29;20919;-85
2023/09/07 04:18:44;;;;;;;16.23;13.33;;;;;;;19.30;90.08;95288.94;4806370;29;20522;-86
2023/09/07 04:21:09;;;;;;;16.98;12.70;;;;;;;19.35;90.17;95297.00;4790078;29;20428;-85
2023/09/07 04:23:35;;;;;;;17.48;13.73;;;;;;;19.42;90.26;95297.59;4805558;29;20536;-85
2023/09/07 04:26:10;;;;;;;20.77;13.82;;;;;;;19.20;90.47;95285.13;4806559;29;20797;-85
2023/09/07 04:28:36;;;;;;;18.98;12.82;;;;;;;19.42;91.15;95322.44;4806389;29;20452;-85
2023/09/07 04:31:03;;;;;;;17.30;13.00;;;;;;;19.32;91.37;95329.56;4789659;29;20447;-85
2023/09/07 04:33:32;;;;;;;18.58;13.50;;;;;;;19.34;91.23;95330.91;4805845;29;20499;-85
2023/09/07 04:36:13;;;;;;;20.02;14.43;;;;;;;19.07;91.26;95285.56;4806023;29;20430;-81
2023/09/07 04:38:39;;;;;;;17.88;13.30;;;;;;;19.22;91.00;95309.72;4800132;29;20522;-89
2023/09/07 04:41:12;;;;;;;18.77;13.53;;;;;;;19.25;90.40;95312.94;4795020;29;20441;-85
2023/09/07 04:43:43;;;;;;;17.50;13.15;;;;;;;19.24;89.84;95312.13;4790908;29;20465;-86
2023/09/07 04:46:09;;;;;;;20.17;13.23;;;;;;;19.25;89.60;95310.28;4776139;29;20513;-86
2023/09/07 04:48:34;;;;;;;16.17;12.13;;;;;;;;;;4806195;29;20956;-86
2023/09/07 04:51:04;;;;;;;17.23;12.77;;;;;;;19.50;89.24;95339.91;4805811;29;20432;-86
2023/09/07 04:53:32;;;;;;;18.65;12.70;;;;;;;19.16;89.61;95297.38;4805644;29;20427;-86
2023/09/07 04:55:58;;;;;;;16.42;12.63;;;;;;;19.35;90.40;95318.38;4805273;29;20431;-86
2023/09/07 04:58:24;;;;;;;21.08;13.60;;;;;;;19.53;89.77;95342.06;4805406;29;20439;-86
2023/09/07 05:00:49;;;;;;;17.73;13.20;;;;;;;19.43;89.88;95316.03;4805275;29;20452;-86
2023/09/07 05:03:15;;;;;;;16.02;11.77;;;;;;;19.69;89.47;95343.00;4806179;29;20227;-86
2023/09/07 05:05:41;;;;;;;15.13;11.83;;;;;;;19.57;88.72;95324.44;4805174;29;20431;-86
2023/09/07 05:08:07;;;;;;;15.68;10.93;;;;;;;19.72;89.23;95343.25;4806586;29;20203;-86
2023/09/07 05:10:36;;;;;;;15.88;10.95;;;;;;;19.64;88.74;95318.88;4789892;29;20218;-86
2023/09/07 05:13:02;;;;;;;14.13;11.50;;;;;;;19.63;88.37;95322.66;4806218;29;20176;-85
2023/09/07 05:15:28;;;;;;;14.95;11.10;;;;;;;19.62;88.57;95343.22;4789726;29;20190;-87
2023/09/07 05:17:54;;;;;;;15.02;11.38;;;;;;;19.41;89.36;95309.34;4806353;29;20233;-86
2023/09/07 05:20:20;;;;;;;16.98;11.65;;;;;;;19.68;89.47;95341.38;4789971;29;20184;-86
2023/09/07 05:22:46;;;;;;;22.85;12.48;;;;;;;19.58;89.77;95352.78;4789672;29;20212;-86
2023/09/07 05:25:12;;;;;;;18.20;11.32;;;;;;;19.65;90.14;95357.91;4790100;29;20196;-86
2023/09/07 05:27:38;;;;;;;16.75;12.07;;;;;;;19.58;90.16;95342.09;4789602;29;20247;-85
2023/09/07 05:30:04;;;;;;;19.17;11.13;;;;;;;19.43;89.98;95324.06;4806156;29;20248;-86
2023/09/07 05:32:30;;;;;;;14.65;11.43;;;;;;;19.44;89.58;95322.19;4806044;29;20187;-85
2023/09/07 05:34:55;;;;;;;17.92;11.52;;;;;;;19.48;89.55;95339.34;4789189;29;20187;-86
2023/09/07 05:37:21;;;;;;;21.42;11.77;;;;;;;19.23;89.36;95315.84;4805496;29;20621;-86
2023/09/07 05:39:46;;;;;;;17.45;11.40;;;;;;;19.20;89.17;95308.34;4805816;29;20183;-86
2023/09/07 05:42:12;;;;;;;13.95;10.32;;;;;;;19.34;89.38;95333.59;4805603;29;20183;-86
2023/09/07 05:44:37;;;;;;;21.58;11.90;;;;;;;19.19;89.24;95325.44;4806036;29;20202;-86
2023/09/07 05:47:03;;;;;;;15.75;10.70;;;;;;;19.11;89.35;95309.88;4789438;29;20724;-86
2023/09/07 05:49:29;;;;;;;15.70;10.20;;;;;;;19.36;89.18;95354.69;4805831;29;20190;-86
2023/09/07 05:51:54;;;;;;;14.73;10.13;;;;;;;18.98;88.89;95316.41;4805921;29;20248;-86
2023/09/07 05:54:19;;;;;;;17.33;11.20;;;;;;;19.08;88.91;95310.38;4789265;29;20273;-86
2023/09/07 05:56:45;;;;;;;17.75;10.98;;;;;;;19.14;88.45;95320.03;4805492;29;20187;-86
2023/09/07 05:59:10;;;;;;;18.98;11.77;;;;;;;19.20;88.28;95308.34;4789271;29;20178;-86
2023/09/07 06:01:36;;;;;;;18.63;11.43;;;;;;;19.35;87.93;95326.38;4789229;29;20711;-85
2023/09/07 06:04:03;;;;;;;20.35;10.85;;;;;;;19.56;88.43;95354.88;4789087;29;20715;-86
2023/09/07 06:06:29;;;;;;;15.13;10.77;;;;;;;19.34;87.38;95308.75;4788950;29;20196;-86
2023/09/07 06:08:54;;;;;;;16.40;11.70;;;;;;;19.61;87.27;95343.47;4805271;29;20263;-86
2023/09/07 06:11:19;;;;;;;19.02;10.02;;;;;;;19.96;86.95;95367.78;4805067;29;20196;-85
2023/09/07 06:13:47;;;;;;;22.35;11.13;;;;;;;20.20;86.81;95322.75;4787636;29;20250;-85
2023/09/07 06:16:12;;;;;;;18.58;10.35;;;;;;;21.76;80.94;95377.88;4780583;29;20189;-85
2023/09/07 06:18:38;;;;;;;18.33;9.38;;;;;;;23.05;74.88;95335.22;4776862;29;20184;-85
2023/09/07 06:21:05;;;;;;;14.57;9.93;;;;;;;24.53;68.63;95352.63;4793649;29;20202;-85
2023/09/07 06:23:31;;;;;;;12.02;8.82;;;;;;;26.08;63.78;95376.94;4773706;30;20219;-85
2023/09/07 06:25:56;;;;;;;12.70;7.70;;;;;;;27.13;60.17;95379.91;4787840;29;20185;-85
2023/09/07 06:28:22;;;;;;;14.65;8.13;;;;;;;27.38;57.05;95355.81;4796053;29;20724;-85
2023/09/07 06:30:47;;;;;;;14.40;8.30;;;;;;;26.99;58.47;95380.69;4778957;29;20192;-85
2023/09/07 06:33:13;;;;;;;11.38;7.40;;;;;;;27.56;56.70;95381.16;4779117;29;20200;-85
2023/09/07 06:35:38;;;;;;;11.75;7.35;;;;;;;27.73;55.86;95389.41;4797447;29;20282;-85
2023/09/07 06:38:04;;;;;;;11.20;6.82;;;;;;;27.96;54.77;95384.81;4779733;29;20191;-86
2023/09/07 06:40:29;;;;;;;10.95;7.43;;;;;;;27.93;54.49;95361.06;4789713;29;20215;-85
2023/09/07 06:42:56;;;;;;;7.63;6.75;;;;;;;27.03;55.09;95364.69;4770477;30;20715;-85
2023/09/07 06:45:23;;;;;;;11.45;7.38;;;;;;;26.78;56.90;95378.69;4786737;30;20650;-85
2023/09/07 06:47:50;;;;;;;11.85;7.38;;;;;;;27.18;56.58;95396.00;4789090;29;20164;-86
2023/09/07 06:50:15;;;;;;;10.45;7.25;;;;;;;27.55;54.99;95384.16;4781306;29;20249;-85
2023/09/07 06:52:41;;;;;;;15.02;6.88;;;;;;;27.85;55.01;95383.44;4797669;29;20172;-86
2023/09/07 06:55:06;;;;;;;17.60;7.05;;;;;;;27.16;55.09;95388.19;4795785;29;20187;-84
2023/09/07 06:57:33;;;;;;;12.30;8.05;;;;;;;27.24;56.22;95371.28;4797963;29;20235;-85
2023/09/07 07:00:00;;;;;;;14.52;7.18;;;;;;;26.60;56.46;95374.97;4780244;29;20180;-84
2023/09/07 07:02:25;;;;;;;13.75;7.03;;;;;;;26.28;57.44;95389.34;4802631;29;20668;-81
2023/09/07 07:04:51;;;;;;;12.05;6.97;;;;;;;26.11;58.26;95384.47;4808159;29;20171;-86
2023/09/07 07:07:17;;;;;;;10.07;6.18;;;;;;;25.66;58.24;95385.97;4808444;29;20179;-88
2023/09/07 07:09:43;;;;;;;12.13;6.72;;;;;;;25.33;60.21;95378.88;4792206;29;20224;-87
2023/09/07 07:12:08;;;;;;;9.13;6.32;;;;;;;25.10;60.36;95369.72;4807269;29;20608;-87
2023/09/07 07:14:33;;;;;;;9.52;6.53;;;;;;;24.88;60.74;95337.94;4797331;29;20184;-87
2023/09/07 07:16:59;;;;;;;12.70;6.35;;;;;;;25.28;60.94;95365.44;4797083;29;20279;-87
2023/09/07 07:19:24;;;;;;;12.38;6.78;;;;;;;26.15;59.32;95390.84;4780528;29;20664;-86
2023/09/07 07:21:50;;;;;;;8.77;5.85;;;;;;;25.83;56.70;95339.59;4793411;29;20177;-86
2023/09/07 07:24:15;;;;;;;12.15;6.90;;;;;;;26.43;56.02;95382.84;4790043;30;20272;-87
2023/09/07 07:26:41;;;;;;;13.13;6.05;;;;;;;26.58;54.92;95388.78;4773713;30;20263;-86
2023/09/07 07:29:06;;;;;;;9.57;5.65;;;;;;;27.04;54.26;95404.94;4789772;30;20270;-87
2023/09/07 07:31:32;;;;;;;9.43;6.25;;;;;;;26.70;53.62;95385.59;4789767;30;20204;-87
2023/09/07 07:33:58;;;;;;;7.93;6.00;;;;;;;26.78;53.14;95403.81;4794587;29;20184;-87
2023/09/07 07:36:23;;;;;;;18.20;6.30;;;;;;;26.44;53.69;95385.25;4796226;29;20193;-86
2023/09/07 07:38:49;;;;;;;10.85;6.07;;;;;;;25.29;56.53;95402.09;4781993;29;20211;-85
2023/09/07 07:41:15;;;;;;;12.27;6.68;;;;;;;24.49;59.78;95383.88;4779827;29;20641;-84
2023/09/07 07:43:40;;;;;;;11.05;6.15;;;;;;;24.47;60.55;95382.56;4794151;29;20276;-84
2023/09/07 07:46:07;;;;;;;9.82;5.97;;;;;;;24.48;60.77;95400.31;4795148;29;20185;-86
2023/09/07 07:48:35;;;;;;;9.20;5.80;;;;;;;24.25;59.38;95400.00;4795825;29;20648;-84
2023/09/07 07:51:04;;;;;;;6.30;5.45;;;;;;;24.51;59.19;95395.16;4804872;29;20258;-86
2023/09/07 07:53:30;;;;;;;7.30;5.30;;;;;;;24.17;58.86;95381.75;4788808;30;20199;-85
2023/09/07 07:55:57;;;;;;;7.13;4.90;;;;;;;24.21;57.88;95412.44;4789111;30;20638;-85
2023/09/07 07:58:22;;;;;;;7.43;5.18;;;;;;;24.03;57.94;95411.19;4788723;29;20177;-86
2023/09/07 08:00:48;;;;;;;8.45;4.60;;;;;;;23.87;57.91;95380.09;4789397;30;20180;-85
2023/09/07 08:03:14;;;;;;;10.63;5.40;;;;;;;24.16;57.86;95390.91;4789449;30;20200;-86
2023/09/07 08:05:40;;;;;;;11.65;5.15;;;;;;;24.35;57.48;95381.06;4789259;30;20564;-87
2023/09/07 08:08:05;;;;;;;9.70;5.25;;;;;;;24.77;56.15;95409.16;4789061;30;20295;-87
2023/09/07 08:10:36;;;;;;;8.10;5.05;;;;;;;25.14;55.62;95385.03;4773890;30;20243;-85
2023/09/07 08:13:02;;;;;;;13.55;4.75;;;;;;;25.39;54.59;95366.91;4790189;30;20172;-86
2023/09/07 08:15:29;;;;;;;8.70;5.00;;;;;;;25.33;54.55;95368.91;4772239;30;20212;-83
2023/09/07 08:17:55;;;;;;;5.90;4.45;;;;;;;25.72;53.55;95405.56;4772419;30;20575;-83
2023/09/07 08:20:20;;;;;;;8.65;4.70;;;;;;;25.51;53.48;95381.56;4789092;29;20187;-83
2023/09/07 08:22:46;;;;;;;8.65;5.00;;;;;;;25.61;53.92;95377.13;4795793;29;20204;-82
2023/09/07 08:25:13;;;;;;;11.80;4.68;;;;;;;25.84;52.64;95370.88;4798559;29;20191;-83
2023/09/07 08:27:44;;;;;;;9.00;5.03;;;;;;;26.22;52.27;95387.75;4798599;29;20295;-82
2023/09/07 08:30:15;;;;;;;5.50;4.68;;;;;;;26.66;51.35;95395.38;4795240;29;20176;-84
2023/09/07 08:32:42;;;;;;;8.02;4.95;;;;;;;26.48;51.37;95397.06;4778962;29;20177;-79
2023/09/07 08:35:13;;;;;;;7.38;4.75;;;;;;;26.56;50.13;95377.47;4797921;29;20329;-84
2023/09/07 08:37:41;;;;;;;6.30;4.57;;;;;;;26.83;48.70;95390.19;4797765;29;20218;-85
2023/09/07 08:40:07;;;;;;;5.95;4.35;;;;;;;26.60;48.45;95381.19;4780943;30;20191;-85
2023/09/07 08:42:36;;;;;;;5.72;4.68;;;;;;;26.80;47.57;95415.13;4777943;29;20278;-85
2023/09/07 08:45:06;;;;;;;9.02;4.25;;;;;;;26.74;48.11;95410.09;4781647;29;20189;-84
2023/09/07 08:47:33;;;;;;;9.00;4.63;;;;;;;26.52;48.78;95381.06;4796835;29;20169;-83
2023/09/07 08:50:00;;;;;;;6.43;4.38;;;;;;;26.40;48.62;95397.75;4795724;29;20188;-82
2023/09/07 08:52:26;;;;;;;7.68;4.68;;;;;;;26.05;49.80;95380.22;4798541;29;20184;-84
2023/09/07 08:54:53;;;;;;;10.48;5.00;;;;;;;25.65;50.01;95378.97;4794823;29;20176;-86
2023/09/07 08:57:23;;;;;;;14.15;4.75;;;;;;;25.67;49.80;95395.69;4795471;29;20252;-80
2023/09/07 08:59:49;;;;;;;6.18;4.30;;;;;;;25.56;50.13;95386.91;4796007;29;20179;-79
2023/09/07 09:02:16;;;;;;;7.25;4.65;;;;;;;25.27;50.75;95374.63;4798694;29;20203;-81
2023/09/07 09:04:41;;;;;;;6.72;4.85;;;;;;;25.02;52.59;95389.25;4798517;29;20966;-80
2023/09/07 09:07:07;;;;;;;8.35;4.97;;;;;;;24.91;52.67;95372.38;4796948;29;20182;-82
2023/09/07 09:09:32;;;;;;;10.43;5.57;;;;;;;25.06;53.62;95385.69;4798109;29;20173;-84
2023/09/07 09:12:08;;;;;;;7.70;4.65;;;;;;;25.29;52.70;95345.50;4792272;29;20576;-83
2023/09/07 09:14:34;;;;;;;12.75;4.90;;;;;;;25.81;51.66;95372.25;4789319;29;20176;-82
2023/09/07 09:17:01;;;;;;;8.60;4.43;;;;;;;25.91;49.56;95382.88;4798316;29;20207;-84
2023/09/07 09:19:33;;;;;;;8.25;4.22;;;;;;;25.90;49.29;95365.09;4794924;29;20263;-85
2023/09/07 09:21:59;;;;;;;5.38;4.22;;;;;;;25.70;50.52;95389.69;4791922;29;20191;-85
2023/09/07 09:24:24;;;;;;;5.03;3.88;;;;;;;25.65;50.40;95360.09;4794517;29;20642;-86
2023/09/07 09:26:51;;;;;;;11.27;4.38;;;;;;;25.92;50.13;95379.09;4793986;29;20192;-82
2023/09/07 09:29:16;;;;;;;6.45;4.30;;;;;;;25.65;50.18;95352.00;4777525;30;20238;-85
2023/09/07 09:31:43;;;;;;;5.95;3.92;;;;;;;25.43;50.89;95373.31;4796745;29;20184;-79
2023/09/07 09:34:08;;;;;;;6.20;4.25;;;;;;;24.92;51.50;95328.19;4795136;29;20176;-81
2023/09/07 09:36:37;;;;;;;6.57;4.68;;;;;;;25.32;52.36;95369.97;4792227;29;20559;-79
2023/09/07 09:39:03;;;;;;;8.50;5.05;;;;;;;25.58;51.82;95362.34;4797466;29;20172;-78
2023/09/07 09:41:33;;;;;;;7.15;4.35;;;;;;;25.63;49.84;95367.66;4797941;29;20678;-81
2023/09/07 09:44:00;;;;;;;9.00;4.20;;;;;;;25.45;49.79;95368.44;4794671;29;20208;-80
2023/09/07 09:46:27;;;;;;;5.93;4.78;;;;;;;25.26;49.68;95344.16;4797716;29;20171;-81
2023/09/07 09:48:55;;;;;;;6.38;4.32;;;;;;;25.09;50.34;95362.72;4794300;29;20747;-80
2023/09/07 09:51:20;;;;;;;9.10;4.28;;;;;;;24.92;51.03;95354.34;4781361;29;20183;-81
2023/09/07 09:53:46;;;;;;;6.38;4.45;;;;;;;24.78;50.89;95340.75;4793278;29;20184;-81
2023/09/07 09:56:12;;;;;;;8.38;4.00;;;;;;;24.84;50.73;95355.75;4801151;29;20186;-80
2023/09/07 09:58:38;;;;;;;6.70;3.85;;;;;;;24.70;51.28;95360.22;4800946;29;20266;-80
2023/09/07 10:01:05;;;;;;;9.10;4.10;;;;;;;24.63;51.33;95357.09;4798480;29;20189;-80
2023/09/07 10:03:48;;;;;;;10.35;4.93;;;;;;;24.48;52.29;95341.06;4796384;29;20264;-82
2023/09/07 10:06:28;;;;;;;9.63;4.82;;;;;;;24.66;52.12;95346.53;4795085;29;20184;-81
2023/09/07 10:09:06;;;;;;;5.90;4.03;;;;;;;24.54;51.24;95351.53;4783012;29;20629;-79
2023/09/07 10:11:34;;;;;;;10.10;4.32;;;;;;;24.29;51.79;95339.16;4797849;29;20180;-80
2023/09/07 10:14:03;;;;;;;5.15;3.45;;;;;;;24.23;52.06;95342.16;4798992;29;20183;-80
2023/09/07 10:16:40;;;;;;;6.10;3.70;;;;;;;24.18;52.52;95342.97;4788676;29;20188;-80
2023/09/07 10:19:17;;;;;;;7.72;4.25;;;;;;;24.20;53.03;95343.50;4784536;29;20184;-80
2023/09/07 10:21:43;;;;;;;6.10;3.80;;;;;;;24.23;52.68;95332.19;4783098;29;20669;-80
2023/09/07 10:24:08;;;;;;;6.85;4.00;;;;;;;24.23;53.20;95321.44;4795684;29;20349;-81
2023/09/07 10:26:34;;;;;;;6.78;4.05;;;;;;;24.38;52.78;95336.63;4786586;29;20191;-80
2023/09/07 10:29:03;;;;;;;7.32;3.70;;;;;;;24.36;52.80;95341.50;4798619;29;20224;-80
2023/09/07 10:31:32;;;;;;;11.30;4.20;;;;;;;24.30;52.67;95329.97;4796079;29;20192;-81
2023/09/07 10:34:14;;;;;;;9.65;4.22;;;;;;;24.33;52.65;95331.28;4780333;29;20176;-80
2023/09/07 10:36:40;;;;;;;7.63;4.68;;;;;;;24.20;53.09;95315.78;4793126;29;20660;-81
2023/09/07 10:39:06;;;;;;;4.78;3.67;;;;;;;24.32;53.39;95333.16;4793818;29;20197;-81
2023/09/07 10:41:45;;;;;;;7.72;4.45;;;;;;;24.30;52.66;95315.72;4785610;29;20187;-82
2023/09/07 10:44:12;;;;;;;7.20;4.43;;;;;;;24.31;53.20;95320.81;4796564;29;20239;-81
2023/09/07 10:46:39;;;;;;;6.45;4.32;;;;;;;24.46;53.43;95333.31;4798455;29;20203;-80
2023/09/07 10:49:07;;;;;;;7.80;4.20;;;;;;;24.48;52.10;95336.50;4795185;29;20209;-81
2023/09/07 10:51:33;;;;;;;4.35;3.80;;;;;;;24.53;51.67;95328.38;4783321;29;20176;-81
2023/09/07 10:53:58;;;;;;;7.85;4.00;;;;;;;24.41;52.15;95318.00;4798182;29;20187;-81
2023/09/07 10:56:27;;;;;;;9.40;4.50;;;;;;;24.47;52.17;95323.34;4797230;29;20185;-81
2023/09/07 10:58:54;;;;;;;7.55;5.00;;;;;;;24.50;52.62;95331.63;4776511;29;20690;-82
2023/09/07 11:01:20;;;;;;;7.88;4.38;;;;;;;24.48;51.76;95322.22;4796796;29;20191;-80
2023/09/07 11:03:46;;;;;;;5.32;4.20;;;;;;;24.55;52.23;95314.63;4796754;29;20615;-80
2023/09/07 11:06:19;;;;;;;8.77;4.28;;;;;;;24.59;51.45;95321.84;4795672;29;20196;-81
2023/09/07 11:08:45;;;;;;;5.55;4.65;;;;;;;24.39;51.93;95295.94;4796360;29;20226;-80
2023/09/07 11:11:11;;;;;;;6.32;4.45;;;;;;;24.72;52.11;95323.06;4797103;29;20669;-80
2023/09/07 11:13:37;;;;;;;6.80;4.38;;;;;;;24.66;51.87;95324.97;4793787;29;20195;-80
2023/09/07 11:16:03;;;;;;;9.20;3.88;;;;;;;24.62;52.06;95313.19;4794745;29;20577;-82
2023/09/07 11:18:29;;;;;;;6.43;3.70;;;;;;;24.68;52.13;95333.59;4794134;29;20191;-79
2023/09/07 11:20:56;;;;;;;7.93;3.80;;;;;;;24.63;52.31;95327.47;4783437;29;20225;-79
2023/09/07 11:23:23;;;;;;;6.70;3.58;;;;;;;24.53;51.88;95325.69;4797842;29;20211;-81